createdAt,value
2019-06-20T00:00:36.320Z,24.19
2019-06-20T00:03:08.568Z,24.15
2019-06-20T00:05:40.787Z,24.06
2019-06-20T00:08:13.032Z,24.05
2019-06-20T00:10:45.326Z,24.04
2019-06-20T00:13:17.651Z,24.08
2019-06-20T00:15:49.921Z,23.99
2019-06-20T00:18:21.960Z,23.99
2019-06-20T00:20:54.084Z,23.87
2019-06-20T00:23:26.344Z,23.89
2019-06-20T00:25:58.600Z,23.84
2019-06-20T00:28:30.835Z,23.80
2019-06-20T00:31:03.126Z,23.73
2019-06-20T00:33:35.421Z,23.68
2019-06-20T00:36:07.624Z,23.63
2019-06-20T00:38:39.913Z,23.59
2019-06-20T00:41:15.204Z,23.64
2019-06-20T00:43:47.288Z,23.60
2019-06-20T00:46:19.548Z,23.59
2019-06-20T00:48:51.760Z,23.55
2019-06-20T00:51:24.914Z,23.57
2019-06-20T00:53:57.181Z,23.55
2019-06-20T00:56:29.155Z,23.57
2019-06-20T00:59:02.325Z,23.55
2019-06-20T01:01:34.604Z,23.54
2019-06-20T01:04:07.434Z,23.51
2019-06-20T01:06:39.672Z,23.47
2019-06-20T01:09:12.248Z,23.51
2019-06-20T01:11:44.432Z,23.53
2019-06-20T01:14:16.783Z,23.48
2019-06-20T01:16:49.039Z,23.46
2019-06-20T01:19:21.315Z,23.44
2019-06-20T01:21:54.892Z,23.42
2019-06-20T01:24:27.215Z,23.37
2019-06-20T01:26:59.579Z,23.34
2019-06-20T01:29:31.823Z,23.25
2019-06-20T01:32:04.206Z,23.32
2019-06-20T01:34:36.611Z,23.30
2019-06-20T01:37:08.827Z,23.23
2019-06-20T01:39:41.165Z,23.20
2019-06-20T01:42:13.588Z,23.21
2019-06-20T01:44:45.941Z,23.29
2019-06-20T01:47:18.421Z,23.28
2019-06-20T01:49:50.761Z,23.33
2019-06-20T01:52:22.955Z,23.33
2019-06-20T01:54:55.156Z,23.28
2019-06-20T01:57:27.912Z,23.30
2019-06-20T02:00:00.279Z,23.32
2019-06-20T02:02:37.048Z,23.32
2019-06-20T02:05:09.413Z,23.31
2019-06-20T02:07:41.712Z,23.25
2019-06-20T02:10:14.125Z,23.29
2019-06-20T02:12:46.436Z,23.34
2019-06-20T02:15:18.645Z,23.28
2019-06-20T02:17:50.805Z,23.28
2019-06-20T02:20:32.021Z,23.42
2019-06-20T02:23:05.759Z,24.00
2019-06-20T02:25:38.051Z,25.02
2019-06-20T02:28:10.248Z,25.85
2019-06-20T02:30:42.421Z,26.44
2019-06-20T02:33:14.687Z,26.79
2019-06-20T02:35:46.841Z,25.97
2019-06-20T02:38:19.052Z,24.99
2019-06-20T02:40:51.220Z,24.35
2019-06-20T02:43:24.590Z,23.93
2019-06-20T02:45:57.055Z,23.72
2019-06-20T02:48:29.226Z,23.52
2019-06-20T02:51:02.457Z,23.45
2019-06-20T02:53:34.578Z,23.41
2019-06-20T02:56:06.890Z,23.37
2019-06-20T02:58:39.095Z,23.26
2019-06-20T03:01:11.629Z,23.30
2019-06-20T03:03:44.075Z,23.28
2019-06-20T03:06:16.288Z,23.20
2019-06-20T03:08:49.521Z,23.19
2019-06-20T03:11:21.879Z,23.19
2019-06-20T03:13:54.085Z,23.12
2019-06-20T03:16:26.285Z,23.12
2019-06-20T03:18:58.463Z,23.14
2019-06-20T03:21:30.647Z,23.22
2019-06-20T03:24:03.092Z,23.25
2019-06-20T03:26:35.431Z,23.24
2019-06-20T03:29:07.812Z,23.23
2019-06-20T03:31:40.122Z,23.28
2019-06-20T03:34:12.290Z,23.14
2019-06-20T03:36:44.491Z,23.22
2019-06-20T03:39:16.639Z,23.20
2019-06-20T03:41:48.758Z,23.19
2019-06-20T03:44:21.268Z,23.19
2019-06-20T03:46:53.405Z,23.19
2019-06-20T03:49:25.594Z,23.29
2019-06-20T03:51:57.984Z,23.36
2019-06-20T03:54:30.248Z,23.40
2019-06-20T03:57:02.524Z,23.36
2019-06-20T03:59:34.749Z,23.33
2019-06-20T04:02:06.881Z,23.37
2019-06-20T04:04:39.095Z,23.41
2019-06-20T04:07:11.305Z,23.47
2019-06-20T04:09:43.276Z,23.54
2019-06-20T04:12:15.622Z,23.60
2019-06-20T04:14:49.060Z,23.66
2019-06-20T04:17:21.497Z,23.66
2019-06-20T04:19:53.619Z,23.73
2019-06-20T04:22:25.706Z,23.82
2019-06-20T04:24:58.019Z,23.85
2019-06-20T04:27:30.377Z,23.92
2019-06-20T04:30:02.647Z,23.87
2019-06-20T04:32:35.824Z,23.91
2019-06-20T04:35:08.316Z,23.92
2019-06-20T04:37:40.474Z,23.93
2019-06-20T04:40:13.073Z,23.93
2019-06-20T04:42:45.101Z,23.94
2019-06-20T04:45:31.442Z,23.94
2019-06-20T04:47:52.643Z,23.95
2019-06-20T04:50:24.842Z,23.99
2019-06-20T04:52:57.004Z,24.17
2019-06-20T04:55:29.220Z,24.19
2019-06-20T04:58:01.373Z,24.20
2019-06-20T05:00:33.604Z,24.25
2019-06-20T05:03:05.861Z,24.20
2019-06-20T05:05:37.948Z,24.30
2019-06-20T05:08:10.013Z,24.41
2019-06-20T05:10:44.425Z,24.43
2019-06-20T05:13:16.599Z,24.53
2019-06-20T05:15:53.064Z,24.63
2019-06-20T05:18:22.757Z,24.72
2019-06-20T05:20:55.975Z,24.81
2019-06-20T05:23:30.038Z,24.87
2019-06-20T05:26:02.180Z,24.85
2019-06-20T05:28:34.245Z,24.94
2019-06-20T05:31:07.584Z,24.96
2019-06-20T05:33:40.867Z,25.08
2019-06-20T05:36:12.924Z,25.13
2019-06-20T05:38:45.128Z,25.15
2019-06-20T05:41:17.367Z,25.14
2019-06-20T05:43:50.691Z,25.22
2019-06-20T05:46:22.936Z,25.38
2019-06-20T05:48:55.009Z,25.53
2019-06-20T05:51:27.228Z,25.51
2019-06-20T05:53:59.329Z,25.71
2019-06-20T05:56:31.453Z,25.85
2019-06-20T05:59:04.009Z,25.93
2019-06-20T06:01:36.292Z,26.01
2019-06-20T06:04:08.985Z,26.07
2019-06-20T06:06:41.348Z,26.12
2019-06-20T06:09:13.458Z,26.28
2019-06-20T06:11:45.764Z,26.39
2019-06-20T06:14:17.969Z,26.45
2019-06-20T06:16:50.429Z,26.56
2019-06-20T06:19:22.597Z,26.69
2019-06-20T06:21:54.854Z,26.79
2019-06-20T06:24:27.076Z,26.86
2019-06-20T06:27:00.060Z,26.92
2019-06-20T06:29:32.284Z,27.02
2019-06-20T06:32:04.436Z,27.10
2019-06-20T06:34:36.676Z,27.18
2019-06-20T06:37:08.875Z,27.32
2019-06-20T06:39:43.485Z,27.42
2019-06-20T06:42:14.930Z,27.53
2019-06-20T06:44:48.280Z,27.61
2019-06-20T06:47:20.402Z,27.78
2019-06-20T06:49:54.396Z,27.99
2019-06-20T06:52:26.530Z,28.18
2019-06-20T06:54:58.670Z,28.21
2019-06-20T06:57:31.039Z,28.29
2019-06-20T07:00:04.701Z,28.29
2019-06-20T07:02:37.150Z,28.27
2019-06-20T07:05:09.814Z,28.40
2019-06-20T07:07:42.145Z,28.51
2019-06-20T07:10:14.562Z,28.60
2019-06-20T07:12:46.730Z,28.68
2019-06-20T07:15:19.631Z,28.92
2019-06-20T07:17:51.851Z,28.92
2019-06-20T07:20:25.027Z,29.14
2019-06-20T07:22:57.490Z,29.02
2019-06-20T07:25:30.883Z,29.08
2019-06-20T07:28:03.065Z,29.21
2019-06-20T07:30:36.393Z,29.26
2019-06-20T07:33:08.703Z,29.33
2019-06-20T07:35:42.004Z,29.43
2019-06-20T07:38:14.148Z,29.40
2019-06-20T07:40:46.377Z,29.14
2019-06-20T07:43:18.694Z,29.28
2019-06-20T07:46:02.159Z,29.12
2019-06-20T07:48:25.065Z,29.04
2019-06-20T07:50:57.245Z,29.19
2019-06-20T07:53:29.547Z,29.28
2019-06-20T07:56:02.995Z,29.60
2019-06-20T07:58:35.136Z,29.92
2019-06-20T08:01:09.490Z,30.04
2019-06-20T08:03:45.086Z,29.96
2019-06-20T08:06:15.716Z,29.69
2019-06-20T08:08:48.245Z,29.57
2019-06-20T08:11:20.478Z,29.46
2019-06-20T08:13:52.652Z,29.77
2019-06-20T08:16:24.987Z,29.98
2019-06-20T08:18:57.375Z,29.85
2019-06-20T08:21:30.445Z,29.70
2019-06-20T08:24:02.611Z,30.05
2019-06-20T08:26:34.980Z,30.38
2019-06-20T08:29:19.761Z,30.33
2019-06-20T08:31:41.342Z,30.49
2019-06-20T08:34:15.879Z,30.66
2019-06-20T08:36:48.200Z,30.73
2019-06-20T08:39:21.060Z,30.78
2019-06-20T08:41:53.463Z,30.52
2019-06-20T08:44:26.277Z,30.15
2019-06-20T08:47:00.274Z,30.11
2019-06-20T08:49:32.598Z,30.06
2019-06-20T08:52:05.614Z,29.94
2019-06-20T08:54:37.922Z,30.04
2019-06-20T08:57:09.926Z,30.29
2019-06-20T08:59:43.802Z,30.17
2019-06-20T09:02:17.828Z,29.95
2019-06-20T09:04:50.075Z,29.94
2019-06-20T09:07:22.407Z,30.21
2019-06-20T09:09:55.905Z,30.40
2019-06-20T09:12:28.332Z,30.68
2019-06-20T09:15:01.184Z,30.76
2019-06-20T09:17:35.062Z,31.00
2019-06-20T09:20:09.119Z,31.22
2019-06-20T09:22:41.513Z,31.25
2019-06-20T09:25:13.585Z,31.48
2019-06-20T09:27:45.898Z,31.47
2019-06-20T09:30:18.844Z,31.52
2019-06-20T09:32:52.267Z,31.05
2019-06-20T09:35:24.815Z,31.12
2019-06-20T09:37:57.206Z,31.26
2019-06-20T09:40:29.661Z,31.37
2019-06-20T09:43:02.927Z,30.96
2019-06-20T09:45:36.155Z,30.79
2019-06-20T09:48:08.306Z,31.09
2019-06-20T09:50:40.512Z,31.37
2019-06-20T09:53:12.642Z,31.18
2019-06-20T09:55:45.040Z,30.89
2019-06-20T09:58:17.247Z,30.80
2019-06-20T10:00:50.772Z,31.24
2019-06-20T10:03:23.541Z,31.60
2019-06-20T10:05:56.687Z,31.54
2019-06-20T10:08:29.075Z,31.83
2019-06-20T10:11:01.324Z,31.91
2019-06-20T10:13:33.569Z,31.84
2019-06-20T10:16:05.786Z,31.75
2019-06-20T10:18:37.944Z,31.58
2019-06-20T10:21:10.456Z,31.66
2019-06-20T10:23:42.915Z,31.68
2019-06-20T10:26:15.026Z,31.93
2019-06-20T10:28:48.114Z,32.00
2019-06-20T10:31:21.472Z,32.05
2019-06-20T10:33:54.872Z,32.25
2019-06-20T10:36:27.352Z,32.40
2019-06-20T10:38:59.742Z,32.27
2019-06-20T10:41:31.793Z,32.27
2019-06-20T10:44:03.965Z,32.08
2019-06-20T10:46:36.303Z,32.04
2019-06-20T10:49:08.546Z,32.38
2019-06-20T10:51:42.961Z,32.69
2019-06-20T10:54:16.139Z,32.89
2019-06-20T10:56:49.063Z,32.97
2019-06-20T10:59:21.309Z,33.04
2019-06-20T11:01:53.351Z,32.98
2019-06-20T11:04:25.554Z,33.13
2019-06-20T11:06:57.763Z,33.27
2019-06-20T11:09:29.909Z,33.36
2019-06-20T11:12:02.299Z,33.24
2019-06-20T11:14:34.446Z,32.90
2019-06-20T11:17:06.668Z,32.87
2019-06-20T11:19:39.741Z,32.68
2019-06-20T11:22:12.277Z,32.38
2019-06-20T11:24:45.164Z,32.23
2019-06-20T11:27:17.536Z,31.94
2019-06-20T11:29:49.760Z,31.79
2019-06-20T11:32:22.221Z,31.77
2019-06-20T11:34:54.507Z,31.78
2019-06-20T11:37:27.388Z,31.80
2019-06-20T11:39:59.625Z,32.07
2019-06-20T11:42:31.815Z,32.18
2019-06-20T11:45:06.439Z,32.54
2019-06-20T11:47:38.526Z,32.79
2019-06-20T11:50:11.241Z,32.54
2019-06-20T11:52:45.684Z,32.18
2019-06-20T11:55:17.803Z,32.24
2019-06-20T11:57:49.949Z,32.43
2019-06-20T12:00:23.067Z,32.32
2019-06-20T12:02:55.316Z,32.00
2019-06-20T12:05:27.413Z,32.18
2019-06-20T12:07:59.408Z,32.43
2019-06-20T12:10:31.552Z,32.56
2019-06-20T12:13:03.709Z,32.55
2019-06-20T12:15:35.871Z,32.21
2019-06-20T12:18:08.163Z,32.39
2019-06-20T12:20:41.161Z,32.79
2019-06-20T12:23:14.679Z,33.09
2019-06-20T12:25:46.898Z,33.15
2019-06-20T12:28:19.155Z,33.01
2019-06-20T12:30:51.547Z,32.65
2019-06-20T12:33:23.656Z,32.66
2019-06-20T12:35:55.903Z,32.88
2019-06-20T12:38:28.144Z,32.86
2019-06-20T12:41:00.356Z,32.97
2019-06-20T12:43:32.568Z,33.05
2019-06-20T12:46:04.900Z,32.90
2019-06-20T12:48:38.133Z,32.44
2019-06-20T12:51:10.925Z,32.27
2019-06-20T12:53:44.209Z,32.43
2019-06-20T12:56:17.392Z,32.61
2019-06-20T12:58:49.566Z,32.72
2019-06-20T13:01:34.688Z,32.97
2019-06-20T13:03:55.799Z,32.82
2019-06-20T13:06:28.221Z,32.69
2019-06-20T13:09:00.534Z,32.52
2019-06-20T13:11:34.171Z,32.60
2019-06-20T13:14:06.381Z,32.61
2019-06-20T13:16:39.020Z,32.77
2019-06-20T13:19:11.206Z,32.83
2019-06-20T13:21:44.669Z,32.93
2019-06-20T13:24:16.800Z,32.75
2019-06-20T13:26:50.750Z,32.73
2019-06-20T13:29:23.114Z,32.99
2019-06-20T13:32:03.879Z,33.03
2019-06-20T13:34:30.147Z,33.14
2019-06-20T13:37:02.545Z,32.97
2019-06-20T13:39:34.659Z,32.90
2019-06-20T13:42:06.921Z,32.71
2019-06-20T13:44:39.601Z,32.64
2019-06-20T13:47:13.324Z,32.79
2019-06-20T13:49:47.791Z,32.88
2019-06-20T13:52:20.090Z,32.92
2019-06-20T13:54:52.184Z,32.88
2019-06-20T13:57:24.458Z,32.46
2019-06-20T13:59:56.798Z,32.54
2019-06-20T14:02:30.037Z,32.54
2019-06-20T14:05:02.098Z,32.69
2019-06-20T14:07:34.388Z,32.90
2019-06-20T14:10:08.016Z,33.08
2019-06-20T14:12:42.869Z,33.16
2019-06-20T14:15:16.642Z,33.02
2019-06-20T14:17:49.937Z,33.33
2019-06-20T14:20:23.049Z,33.21
2019-06-20T14:22:56.558Z,32.83
2019-06-20T14:25:28.813Z,32.39
2019-06-20T14:28:01.128Z,32.59
2019-06-20T14:30:33.229Z,32.98
2019-06-20T14:33:05.456Z,33.18
2019-06-20T14:35:37.626Z,33.42
2019-06-20T14:38:09.839Z,33.43
2019-06-20T14:40:43.544Z,33.35
2019-06-20T14:43:16.083Z,33.43
2019-06-20T14:45:48.731Z,33.55
2019-06-20T14:48:22.754Z,34.13
2019-06-20T14:50:55.518Z,34.80
2019-06-20T14:53:27.707Z,35.29
2019-06-20T14:56:00.005Z,35.04
2019-06-20T14:58:32.311Z,34.78
2019-06-20T15:01:04.673Z,34.71
2019-06-20T15:03:36.877Z,34.88
2019-06-20T15:06:09.239Z,35.29
2019-06-20T15:08:41.646Z,35.72
2019-06-20T15:11:13.962Z,35.97
2019-06-20T15:13:47.576Z,35.66
2019-06-20T15:16:20.260Z,35.50
2019-06-20T15:18:54.143Z,35.72
2019-06-20T15:21:26.195Z,35.67
2019-06-20T15:23:58.444Z,35.77
2019-06-20T15:26:30.616Z,36.02
2019-06-20T15:29:06.062Z,36.03
2019-06-20T15:31:36.734Z,35.79
2019-06-20T15:34:08.821Z,35.36
2019-06-20T15:36:40.950Z,35.56
2019-06-20T15:39:13.044Z,35.41
2019-06-20T15:41:48.185Z,35.70
2019-06-20T15:44:20.863Z,35.05
2019-06-20T15:46:52.932Z,34.86
2019-06-20T15:49:25.154Z,34.18
2019-06-20T15:51:59.177Z,34.15
2019-06-20T15:54:31.289Z,33.64
2019-06-20T15:57:03.613Z,33.08
2019-06-20T15:59:35.908Z,32.80
2019-06-20T16:02:07.986Z,32.38
2019-06-20T16:04:40.051Z,32.28
2019-06-20T16:07:13.166Z,32.24
2019-06-20T16:09:45.385Z,32.06
2019-06-20T16:12:17.583Z,31.92
2019-06-20T16:14:49.881Z,31.73
2019-06-20T16:17:22.086Z,31.59
2019-06-20T16:19:54.179Z,31.32
2019-06-20T16:22:26.443Z,31.24
2019-06-20T16:24:58.738Z,31.22
2019-06-20T16:27:31.152Z,31.11
2019-06-20T16:30:06.528Z,30.94
2019-06-20T16:32:39.097Z,30.89
2019-06-20T16:35:11.483Z,30.74
2019-06-20T16:37:43.770Z,30.85
2019-06-20T16:40:17.765Z,30.84
2019-06-20T16:42:49.937Z,30.82
2019-06-20T16:45:22.265Z,30.77
2019-06-20T16:47:55.563Z,30.74
2019-06-20T16:50:27.840Z,30.66
2019-06-20T16:53:01.259Z,30.54
2019-06-20T16:55:34.034Z,30.49
2019-06-20T16:58:06.428Z,30.38
2019-06-20T17:00:38.791Z,30.34
2019-06-20T17:03:10.884Z,30.31
2019-06-20T17:05:43.246Z,30.24
2019-06-20T17:08:15.495Z,30.16
2019-06-20T17:10:47.893Z,30.05
2019-06-20T17:13:20.044Z,29.98
2019-06-20T17:15:52.220Z,29.90
2019-06-20T17:18:24.562Z,29.86
2019-06-20T17:20:56.878Z,29.82
2019-06-20T17:23:28.964Z,29.82
2019-06-20T17:26:01.647Z,29.67
2019-06-20T17:28:34.071Z,29.62
2019-06-20T17:31:06.603Z,29.53
2019-06-20T17:33:38.927Z,29.49
2019-06-20T17:36:18.269Z,29.48
2019-06-20T17:38:45.576Z,29.36
2019-06-20T17:41:17.710Z,29.38
2019-06-20T17:43:49.885Z,29.44
2019-06-20T17:46:21.889Z,29.36
2019-06-20T17:48:54.525Z,29.28
2019-06-20T17:51:26.711Z,29.13
2019-06-20T17:53:58.925Z,29.09
2019-06-20T17:56:31.074Z,29.01
2019-06-20T17:59:03.320Z,28.87
2019-06-20T18:01:36.180Z,28.82
2019-06-20T18:04:13.602Z,28.70
2019-06-20T18:06:42.756Z,28.58
2019-06-20T18:09:15.019Z,28.54
2019-06-20T18:11:47.325Z,28.48
2019-06-20T18:14:19.443Z,28.49
2019-06-20T18:16:52.724Z,28.46
2019-06-20T18:19:24.845Z,28.47
2019-06-20T18:21:58.144Z,28.37
2019-06-20T18:24:30.223Z,28.26
2019-06-20T18:27:02.466Z,28.21
2019-06-20T18:29:35.965Z,28.16
2019-06-20T18:32:11.542Z,28.16
2019-06-20T18:34:43.674Z,28.18
2019-06-20T18:37:30.395Z,28.19
2019-06-20T18:39:49.886Z,28.10
2019-06-20T18:42:22.266Z,28.06
2019-06-20T18:44:54.241Z,28.03
2019-06-20T18:47:27.153Z,27.93
2019-06-20T18:50:04.785Z,27.80
2019-06-20T18:52:51.029Z,27.71
2019-06-20T18:55:11.359Z,27.75
2019-06-20T18:57:43.645Z,27.74
2019-06-20T19:00:30.725Z,27.74
2019-06-20T19:02:51.528Z,27.73
2019-06-20T19:05:24.016Z,27.78
2019-06-20T19:07:56.170Z,27.79
2019-06-20T19:10:28.367Z,27.62
2019-06-20T19:13:00.836Z,27.54
2019-06-20T19:15:33.173Z,27.54
2019-06-20T19:18:05.433Z,27.55
2019-06-20T19:20:37.361Z,27.52
2019-06-20T19:23:09.607Z,27.42
2019-06-20T19:25:41.714Z,27.32
2019-06-20T19:28:13.877Z,27.09
2019-06-20T19:30:49.361Z,27.06
2019-06-20T19:33:21.681Z,27.13
2019-06-20T19:35:54.270Z,27.11
2019-06-20T19:38:26.409Z,27.07
2019-06-20T19:40:58.747Z,27.05
2019-06-20T19:43:31.014Z,27.01
2019-06-20T19:46:03.261Z,26.90
2019-06-20T19:48:36.839Z,26.84
2019-06-20T19:51:09.218Z,26.79
2019-06-20T19:53:41.540Z,26.77
2019-06-20T19:56:13.771Z,26.72
2019-06-20T19:58:45.971Z,26.63
2019-06-20T20:01:18.476Z,26.62
2019-06-20T20:03:50.681Z,26.58
2019-06-20T20:06:22.936Z,26.43
2019-06-20T20:08:55.261Z,26.44
2019-06-20T20:11:27.486Z,26.45
2019-06-20T20:14:00.034Z,26.44
2019-06-20T20:16:32.329Z,26.45
2019-06-20T20:19:04.796Z,26.42
2019-06-20T20:21:36.999Z,26.35
2019-06-20T20:24:09.276Z,26.28
2019-06-20T20:26:42.470Z,26.21
2019-06-20T20:29:14.746Z,26.17
2019-06-20T20:31:47.054Z,26.15
2019-06-20T20:34:19.909Z,26.02
2019-06-20T20:36:53.863Z,25.89
2019-06-20T20:39:26.075Z,25.87
2019-06-20T20:41:58.523Z,25.80
2019-06-20T20:44:30.823Z,25.65
2019-06-20T20:47:03.381Z,25.71
2019-06-20T20:49:35.592Z,25.65
2019-06-20T20:52:10.013Z,25.70
2019-06-20T20:54:42.280Z,25.68
2019-06-20T20:57:17.518Z,25.65
2019-06-20T20:59:49.684Z,25.65
2019-06-20T21:02:21.735Z,25.69
2019-06-20T21:04:53.893Z,25.74
2019-06-20T21:07:26.170Z,25.60
2019-06-20T21:09:58.517Z,25.63
2019-06-20T21:12:30.620Z,25.56
2019-06-20T21:15:03.210Z,25.54
2019-06-20T21:17:35.554Z,25.50
2019-06-20T21:20:08.385Z,25.47
2019-06-20T21:22:40.627Z,25.47
2019-06-20T21:25:13.832Z,25.47
2019-06-20T21:27:46.387Z,25.42
2019-06-20T21:30:18.803Z,25.52
2019-06-20T21:32:51.018Z,25.47
2019-06-20T21:35:23.211Z,25.41
2019-06-20T21:37:55.623Z,25.33
2019-06-20T21:40:30.266Z,25.33
2019-06-20T21:43:02.465Z,25.35
2019-06-20T21:45:34.638Z,25.31
2019-06-20T21:48:06.896Z,25.29
2019-06-20T21:50:39.207Z,25.23
2019-06-20T21:53:11.261Z,25.22
2019-06-20T21:55:43.565Z,25.25
2019-06-20T21:58:15.864Z,25.17
2019-06-20T22:00:51.596Z,25.09
2019-06-20T22:03:25.638Z,25.06
2019-06-20T22:05:58.037Z,25.09
2019-06-20T22:08:30.310Z,25.07
2019-06-20T22:11:02.596Z,25.09
2019-06-20T22:13:34.941Z,25.10
2019-06-20T22:16:07.221Z,25.02
2019-06-20T22:18:39.580Z,25.03
2019-06-20T22:21:11.889Z,24.94
2019-06-20T22:23:44.291Z,24.95
2019-06-20T22:26:17.526Z,24.90
2019-06-20T22:28:49.892Z,24.91
2019-06-20T22:31:22.156Z,24.96
2019-06-20T22:33:54.884Z,24.92
2019-06-20T22:36:39.519Z,24.84
2019-06-20T22:39:00.777Z,24.80
2019-06-20T22:41:34.199Z,24.69
2019-06-20T22:44:06.539Z,24.78
2019-06-20T22:46:38.815Z,24.75
2019-06-20T22:49:11.324Z,24.78
2019-06-20T22:51:44.705Z,24.69
2019-06-20T22:54:17.974Z,24.70
2019-06-20T22:56:50.127Z,24.67
2019-06-20T22:59:22.306Z,24.61
2019-06-20T23:01:54.790Z,24.59
2019-06-20T23:04:28.116Z,24.56
2019-06-20T23:07:00.317Z,24.47
2019-06-20T23:09:33.816Z,24.42
2019-06-20T23:12:06.099Z,24.42
2019-06-20T23:14:38.340Z,24.42
2019-06-20T23:17:14.319Z,24.40
2019-06-20T23:19:46.467Z,24.37
2019-06-20T23:22:18.660Z,24.38
2019-06-20T23:24:52.006Z,24.35
2019-06-20T23:27:24.253Z,24.39
2019-06-20T23:29:56.380Z,24.29
2019-06-20T23:32:28.614Z,24.32
2019-06-20T23:35:00.734Z,24.21
2019-06-20T23:37:32.940Z,24.24
2019-06-20T23:40:08.682Z,24.18
2019-06-20T23:42:41.125Z,24.17
2019-06-20T23:45:14.478Z,24.16
2019-06-20T23:47:46.673Z,24.14
2019-06-20T23:50:18.809Z,24.13
2019-06-20T23:52:55.993Z,24.09
2019-06-20T23:55:28.111Z,24.11
2019-06-20T23:58:00.222Z,24.07
